createdAt,value
2023-01-26T00:00:09.520Z,7.35
2023-01-26T00:02:37.130Z,7.28
2023-01-26T00:05:04.507Z,7.88
2023-01-26T00:07:31.797Z,6.68
2023-01-26T00:09:59.096Z,7.65
2023-01-26T00:12:26.384Z,7.65
2023-01-26T00:14:53.784Z,6.60
2023-01-26T00:17:28.828Z,6.82
2023-01-26T00:19:59.709Z,6.75
2023-01-26T00:22:28.022Z,7.25
2023-01-26T00:24:55.374Z,7.85
2023-01-26T00:27:22.716Z,7.93
2023-01-26T00:29:50.041Z,7.80
2023-01-26T00:32:17.378Z,7.40
2023-01-26T00:34:44.669Z,6.57
2023-01-26T00:37:11.969Z,7.70
2023-01-26T00:39:39.271Z,7.57
2023-01-26T00:42:06.545Z,6.97
2023-01-26T00:44:33.935Z,6.93
2023-01-26T00:47:01.227Z,6.78
2023-01-26T00:49:28.493Z,6.57
2023-01-26T00:51:55.737Z,6.18
2023-01-26T00:54:23.091Z,6.20
2023-01-26T00:56:50.350Z,6.82
2023-01-26T00:59:17.625Z,6.63
2023-01-26T01:01:45.182Z,5.60
2023-01-26T01:04:12.522Z,5.82
2023-01-26T01:06:39.924Z,5.00
2023-01-26T01:09:07.241Z,5.68
2023-01-26T01:11:34.623Z,5.85
2023-01-26T01:14:02.142Z,6.22
2023-01-26T01:16:29.510Z,4.88
2023-01-26T01:18:56.921Z,4.53
2023-01-26T01:21:24.691Z,4.88
2023-01-26T01:23:52.156Z,5.85
2023-01-26T01:26:19.479Z,5.45
2023-01-26T01:28:46.993Z,5.63
2023-01-26T01:31:15.659Z,5.60
2023-01-26T01:33:43.680Z,6.45
2023-01-26T01:36:15.213Z,5.45
2023-01-26T01:38:43.196Z,6.07
2023-01-26T01:41:10.721Z,5.35
2023-01-26T01:43:38.632Z,6.28
2023-01-26T01:46:08.704Z,6.53
2023-01-26T01:48:38.744Z,6.60
2023-01-26T01:51:08.442Z,7.15
2023-01-26T01:53:38.402Z,6.05
2023-01-26T01:56:09.518Z,5.35
2023-01-26T01:58:38.576Z,5.70
2023-01-26T02:01:06.157Z,5.40
2023-01-26T02:03:33.950Z,5.20
2023-01-26T02:06:08.007Z,5.30
2023-01-26T02:08:39.950Z,5.65
2023-01-26T02:11:12.280Z,4.65
2023-01-26T02:13:40.123Z,5.07
2023-01-26T02:16:07.586Z,4.93
2023-01-26T02:18:34.876Z,4.80
2023-01-26T02:21:10.981Z,4.43
2023-01-26T02:23:53.753Z,4.10
2023-01-26T02:26:22.097Z,4.68
2023-01-26T02:28:50.114Z,4.22
2023-01-26T02:31:18.527Z,4.78
2023-01-26T02:33:46.222Z,4.63
2023-01-26T02:36:19.349Z,5.43
2023-01-26T02:38:56.635Z,5.45
2023-01-26T02:41:42.487Z,4.70
2023-01-26T02:44:11.122Z,5.00
2023-01-26T02:46:42.799Z,4.78
2023-01-26T02:54:59.553Z,5.00
2023-01-26T02:57:27.309Z,4.95
2023-01-26T02:59:54.609Z,5.45
2023-01-26T03:02:22.114Z,5.68
2023-01-26T03:04:49.436Z,5.85
2023-01-26T03:07:16.962Z,5.80
2023-01-26T03:09:44.315Z,5.65
2023-01-26T03:12:11.554Z,5.10
2023-01-26T03:14:38.833Z,5.47
2023-01-26T03:17:06.072Z,5.65
2023-01-26T03:19:51.789Z,6.07
2023-01-26T03:22:37.702Z,5.38
2023-01-26T03:25:23.767Z,6.90
2023-01-26T03:27:51.026Z,7.43
2023-01-26T03:30:19.373Z,6.97
2023-01-26T03:32:46.703Z,8.43
2023-01-26T03:35:16.127Z,8.40
2023-01-26T03:37:43.900Z,9.80
2023-01-26T03:40:31.247Z,8.50
2023-01-26T03:43:17.696Z,8.73
2023-01-26T03:46:03.834Z,9.18
2023-01-26T03:48:49.999Z,7.72
2023-01-26T03:51:36.226Z,8.55
2023-01-26T03:54:22.398Z,8.63
2023-01-26T03:56:49.924Z,8.48
2023-01-26T03:59:17.548Z,7.88
2023-01-26T04:02:05.172Z,8.75
2023-01-26T04:04:51.516Z,7.40
2023-01-26T04:07:38.254Z,7.15
2023-01-26T04:10:06.048Z,8.55
2023-01-26T04:12:33.532Z,9.07
2023-01-26T04:15:19.688Z,9.23
2023-01-26T04:18:05.915Z,11.27
2023-01-26T04:20:52.234Z,12.23
2023-01-26T04:23:20.322Z,11.25
2023-01-26T04:25:48.408Z,13.98
2023-01-26T04:28:15.944Z,13.40
2023-01-26T04:30:43.324Z,11.63
2023-01-26T04:33:10.916Z,12.77
2023-01-26T04:35:38.214Z,13.77
2023-01-26T04:38:05.503Z,13.07
2023-01-26T04:40:32.740Z,13.35
2023-01-26T04:42:59.983Z,15.15
2023-01-26T04:45:27.242Z,13.27
2023-01-26T04:47:54.442Z,13.45
2023-01-26T04:50:21.678Z,13.35
2023-01-26T04:52:48.943Z,13.90
2023-01-26T04:55:16.247Z,13.82
2023-01-26T04:57:43.450Z,13.63
2023-01-26T05:00:12.437Z,12.93
2023-01-26T05:02:40.657Z,11.82
2023-01-26T05:05:08.212Z,13.13
2023-01-26T05:07:38.170Z,13.88
2023-01-26T05:10:05.597Z,13.02
2023-01-26T05:12:35.870Z,11.95
2023-01-26T05:15:03.136Z,11.88
2023-01-26T05:17:30.484Z,12.68
2023-01-26T05:19:57.735Z,13.10
2023-01-26T05:22:25.041Z,11.35
2023-01-26T05:24:52.336Z,11.27
2023-01-26T05:27:22.599Z,11.82
2023-01-26T05:29:50.784Z,11.55
2023-01-26T05:32:18.214Z,12.00
2023-01-26T05:34:46.031Z,11.70
2023-01-26T05:37:15.050Z,11.48
2023-01-26T05:39:42.761Z,13.52
2023-01-26T05:42:11.459Z,12.30
2023-01-26T05:44:38.717Z,12.50
2023-01-26T05:47:06.307Z,11.27
2023-01-26T05:49:33.525Z,11.40
2023-01-26T05:52:01.016Z,10.93
2023-01-26T05:54:28.261Z,12.77
2023-01-26T05:56:57.476Z,11.15
2023-01-26T05:59:24.722Z,10.90
2023-01-26T06:01:52.022Z,12.90
2023-01-26T06:04:19.493Z,11.85
2023-01-26T06:06:46.757Z,12.25
2023-01-26T06:09:13.991Z,12.07
2023-01-26T06:11:41.499Z,13.48
2023-01-26T06:16:52.594Z,12.32
2023-01-26T06:19:19.857Z,12.65
2023-01-26T06:21:47.142Z,12.20
2023-01-26T06:24:14.489Z,12.45
2023-01-26T06:26:41.816Z,13.75
2023-01-26T06:29:10.208Z,13.32
2023-01-26T06:31:37.904Z,11.48
2023-01-26T06:34:05.782Z,9.55
2023-01-26T06:36:33.049Z,9.45
2023-01-26T06:39:00.952Z,10.27
2023-01-26T06:41:28.348Z,8.90
2023-01-26T06:43:55.611Z,11.15
2023-01-26T06:46:23.619Z,9.02
2023-01-26T06:48:50.934Z,10.05
2023-01-26T06:51:21.207Z,9.57
2023-01-26T06:53:49.197Z,10.60
2023-01-26T06:56:16.469Z,10.57
2023-01-26T06:58:43.813Z,9.55
2023-01-26T07:01:15.546Z,9.52
2023-01-26T07:03:42.752Z,11.50
2023-01-26T07:06:13.259Z,11.95
2023-01-26T07:08:40.907Z,9.27
2023-01-26T07:11:09.218Z,10.40
2023-01-26T07:13:36.908Z,12.40
2023-01-26T07:16:08.546Z,9.73
2023-01-26T07:18:37.220Z,10.02
2023-01-26T07:21:05.388Z,10.77
2023-01-26T07:23:34.850Z,9.82
2023-01-26T07:26:02.553Z,10.73
2023-01-26T07:28:30.778Z,10.52
2023-01-26T07:30:58.943Z,11.18
2023-01-26T07:33:26.235Z,9.90
2023-01-26T07:35:54.242Z,10.95
2023-01-26T07:38:21.660Z,10.50
2023-01-26T07:40:49.174Z,10.73
2023-01-26T07:43:16.614Z,10.05
2023-01-26T07:45:47.518Z,10.05
2023-01-26T07:48:15.671Z,9.75
2023-01-26T07:50:43.901Z,9.10
2023-01-26T07:53:12.902Z,9.73
2023-01-26T07:55:40.157Z,8.82
2023-01-26T07:58:07.447Z,9.45
2023-01-26T08:00:35.884Z,10.30
2023-01-26T08:03:03.223Z,11.50
2023-01-26T08:05:30.475Z,10.85
2023-01-26T08:07:58.788Z,12.07
2023-01-26T08:10:26.387Z,10.18
2023-01-26T08:12:53.635Z,10.80
2023-01-26T08:15:20.855Z,11.00
2023-01-26T08:17:48.123Z,10.77
2023-01-26T08:20:15.396Z,8.00
2023-01-26T08:22:42.630Z,9.73
2023-01-26T08:25:10.598Z,9.60
2023-01-26T08:27:37.832Z,9.90
2023-01-26T08:30:05.276Z,10.25
2023-01-26T08:32:32.498Z,10.77
2023-01-26T08:35:00.129Z,10.10
2023-01-26T08:37:27.355Z,9.20
2023-01-26T08:39:54.592Z,9.80
2023-01-26T08:42:22.772Z,10.00
2023-01-26T08:44:50.162Z,11.65
2023-01-26T08:47:17.434Z,10.25
2023-01-26T08:49:44.653Z,11.85
2023-01-26T08:52:11.866Z,9.88
2023-01-26T08:54:39.070Z,11.30
2023-01-26T08:57:06.776Z,10.93
2023-01-26T08:59:34.188Z,7.88
2023-01-26T09:02:01.520Z,10.15
2023-01-26T09:04:28.917Z,10.93
2023-01-26T09:07:00.329Z,12.32
2023-01-26T09:09:27.683Z,10.13
2023-01-26T09:11:58.420Z,8.55
2023-01-26T09:14:25.894Z,9.15
2023-01-26T09:16:53.288Z,9.25
2023-01-26T09:19:23.482Z,10.57
2023-01-26T09:21:58.106Z,9.85
2023-01-26T09:24:25.588Z,10.55
2023-01-26T09:26:52.981Z,10.15
2023-01-26T09:29:20.597Z,10.35
2023-01-26T09:31:48.020Z,10.80
2023-01-26T09:34:15.460Z,8.70
2023-01-26T09:36:42.897Z,10.35
2023-01-26T09:39:10.569Z,10.68
2023-01-26T09:41:57.204Z,11.30
2023-01-26T09:44:28.418Z,10.02
2023-01-26T09:47:18.646Z,10.60
2023-01-26T09:49:49.675Z,9.10
2023-01-26T09:52:31.886Z,9.80
2023-01-26T09:55:00.158Z,9.48
2023-01-26T09:57:36.070Z,9.15
2023-01-26T10:00:06.263Z,9.77
2023-01-26T10:02:52.558Z,9.75
2023-01-26T10:05:23.800Z,9.15
2023-01-26T10:07:51.212Z,8.23
2023-01-26T10:10:33.326Z,9.27
2023-01-26T10:13:25.124Z,8.50
2023-01-26T10:16:14.831Z,7.90
2023-01-26T10:18:54.079Z,8.73
2023-01-26T10:21:30.456Z,8.68
2023-01-26T10:24:00.074Z,7.63
2023-01-26T10:26:30.954Z,7.15
2023-01-26T10:28:58.559Z,6.05
2023-01-26T10:31:27.793Z,5.55
2023-01-26T10:33:56.915Z,5.88
2023-01-26T10:36:29.209Z,6.63
2023-01-26T10:39:03.946Z,5.72
2023-01-26T10:41:55.033Z,6.95
2023-01-26T10:44:29.124Z,6.30
2023-01-26T10:47:26.243Z,7.38
2023-01-26T10:49:53.599Z,7.70
2023-01-26T10:52:25.669Z,7.65
2023-01-26T10:55:11.012Z,10.73
2023-01-26T10:57:54.950Z,8.57
2023-01-26T11:00:22.294Z,9.20
2023-01-26T11:02:53.714Z,9.43
2023-01-26T11:05:22.440Z,9.13
2023-01-26T11:07:51.355Z,9.63
2023-01-26T11:10:23.868Z,9.68
2023-01-26T11:12:52.523Z,9.82
2023-01-26T11:15:21.326Z,9.80
2023-01-26T11:18:12.010Z,9.63
2023-01-26T11:20:48.526Z,10.00
2023-01-26T11:23:28.054Z,9.68
2023-01-26T11:26:06.910Z,9.20
2023-01-26T11:28:55.513Z,10.77
2023-01-26T11:31:23.058Z,9.57
2023-01-26T11:33:59.804Z,10.05
2023-01-26T11:36:48.815Z,10.48
2023-01-26T11:39:24.915Z,11.50
2023-01-26T11:41:58.282Z,12.40
2023-01-26T11:44:31.996Z,11.95
2023-01-26T11:47:04.869Z,12.10
2023-01-26T11:49:39.972Z,11.40
2023-01-26T11:52:19.675Z,12.30
2023-01-26T11:54:59.308Z,9.93
2023-01-26T11:57:31.226Z,11.88
2023-01-26T12:00:05.660Z,11.05
2023-01-26T12:02:45.272Z,11.80
2023-01-26T12:05:24.784Z,10.40
2023-01-26T12:08:13.557Z,12.55
2023-01-26T12:10:47.759Z,13.68
2023-01-26T12:13:30.204Z,11.68
2023-01-26T12:16:16.373Z,13.85
2023-01-26T12:19:11.038Z,12.20
2023-01-26T12:21:39.520Z,12.93
2023-01-26T12:24:09.337Z,11.93
2023-01-26T12:26:45.355Z,16.52
2023-01-26T12:29:31.470Z,13.85
2023-01-26T12:32:08.310Z,12.88
2023-01-26T12:34:35.670Z,11.88
2023-01-26T12:37:21.636Z,12.45
2023-01-26T12:39:52.568Z,11.48
2023-01-26T12:42:38.107Z,11.73
2023-01-26T12:45:08.534Z,11.80
2023-01-26T12:47:38.820Z,12.82
2023-01-26T12:50:09.485Z,11.25
2023-01-26T12:52:40.834Z,13.25
2023-01-26T12:55:08.203Z,11.60
2023-01-26T12:57:56.219Z,12.85
2023-01-26T13:00:25.770Z,11.85
2023-01-26T13:02:57.040Z,11.40
2023-01-26T13:05:32.930Z,13.48
2023-01-26T13:08:00.477Z,12.02
2023-01-26T13:10:29.613Z,13.35
2023-01-26T13:13:01.573Z,11.50
2023-01-26T13:15:30.351Z,13.07
2023-01-26T13:18:02.300Z,12.90
2023-01-26T13:20:46.053Z,10.98
2023-01-26T13:23:32.140Z,12.35
2023-01-26T13:26:12.781Z,11.88
2023-01-26T13:28:40.233Z,11.32
2023-01-26T13:31:08.329Z,12.70
2023-01-26T13:33:35.753Z,10.95
2023-01-26T13:36:11.338Z,10.70
2023-01-26T13:38:41.486Z,10.15
2023-01-26T13:41:17.967Z,8.75
2023-01-26T13:43:47.426Z,8.40
2023-01-26T13:46:44.198Z,9.75
2023-01-26T13:49:30.259Z,9.18
2023-01-26T13:51:57.656Z,9.02
2023-01-26T13:54:26.080Z,9.73
2023-01-26T13:57:05.032Z,9.68
2023-01-26T13:59:33.442Z,10.00
2023-01-26T14:02:04.035Z,9.80
2023-01-26T14:04:44.627Z,9.48
2023-01-26T14:07:18.038Z,11.95
2023-01-26T14:09:55.818Z,11.57
2023-01-26T14:12:28.199Z,10.82
2023-01-26T14:15:13.657Z,10.00
2023-01-26T14:17:56.255Z,11.30
2023-01-26T14:20:36.174Z,10.45
2023-01-26T14:23:15.626Z,12.52
2023-01-26T14:25:49.607Z,13.52
2023-01-26T14:28:17.815Z,13.80
2023-01-26T14:30:52.954Z,13.38
2023-01-26T14:33:29.192Z,13.82
2023-01-26T14:36:20.665Z,12.68
2023-01-26T14:38:52.132Z,16.05
2023-01-26T14:41:29.190Z,12.93
2023-01-26T14:44:19.830Z,13.75
2023-01-26T14:47:00.952Z,12.80
2023-01-26T14:49:34.571Z,16.60
2023-01-26T14:52:02.909Z,20.33
2023-01-26T14:54:31.310Z,14.80
2023-01-26T14:56:59.766Z,13.90
2023-01-26T14:59:35.946Z,17.05
2023-01-26T15:02:17.122Z,16.35
2023-01-26T15:04:47.635Z,15.77
2023-01-26T15:07:34.462Z,15.98
2023-01-26T15:10:02.551Z,16.52
2023-01-26T15:12:34.469Z,16.92
2023-01-26T15:15:03.171Z,15.40
2023-01-26T15:17:41.533Z,18.35
2023-01-26T15:20:15.207Z,14.45
2023-01-26T15:22:49.846Z,15.82
2023-01-26T15:25:18.231Z,15.35
2023-01-26T15:27:50.422Z,14.60
2023-01-26T15:30:18.283Z,19.98
2023-01-26T15:32:46.040Z,19.25
2023-01-26T15:35:26.997Z,20.98
2023-01-26T15:38:04.741Z,17.20
2023-01-26T15:40:32.557Z,16.02
2023-01-26T15:43:26.253Z,17.48
2023-01-26T15:45:54.994Z,18.48
2023-01-26T15:48:22.887Z,18.13
2023-01-26T15:50:50.432Z,15.70
2023-01-26T15:53:23.030Z,18.70
2023-01-26T15:55:56.155Z,18.13
2023-01-26T15:58:24.076Z,16.17
2023-01-26T16:00:52.857Z,17.75
2023-01-26T16:03:21.140Z,16.13
2023-01-26T16:05:48.915Z,16.27
2023-01-26T16:08:17.177Z,16.85
2023-01-26T16:10:59.829Z,17.20
2023-01-26T16:13:27.931Z,18.50
2023-01-26T16:16:21.118Z,19.20
2023-01-26T16:18:48.934Z,18.67
2023-01-26T16:21:21.256Z,16.35
2023-01-26T16:23:49.060Z,16.52
2023-01-26T16:26:36.381Z,16.73
2023-01-26T16:29:15.430Z,17.15
2023-01-26T16:31:46.082Z,16.90
2023-01-26T16:34:18.788Z,17.27
2023-01-26T16:36:48.024Z,17.55
2023-01-26T16:39:15.613Z,18.13
2023-01-26T16:41:43.011Z,15.73
2023-01-26T16:44:14.344Z,15.45
2023-01-26T16:46:43.022Z,15.43
2023-01-26T16:49:13.386Z,14.15
2023-01-26T16:51:41.845Z,16.23
2023-01-26T16:54:09.342Z,14.65
2023-01-26T16:56:36.784Z,15.73
2023-01-26T16:59:05.954Z,13.75
2023-01-26T17:01:37.645Z,13.38
2023-01-26T17:04:05.814Z,13.50
2023-01-26T17:06:33.290Z,13.27
2023-01-26T17:09:00.763Z,12.75
2023-01-26T17:11:29.240Z,14.60
2023-01-26T17:13:57.228Z,13.45
2023-01-26T17:16:26.105Z,11.63
2023-01-26T17:18:54.357Z,12.88
2023-01-26T17:21:21.969Z,13.38
2023-01-26T17:23:50.929Z,12.50
2023-01-26T17:26:18.790Z,12.85
2023-01-26T17:28:46.758Z,12.32
2023-01-26T17:31:18.764Z,15.25
2023-01-26T17:33:50.172Z,12.70
2023-01-26T17:36:18.203Z,12.80
2023-01-26T17:38:45.571Z,13.05
2023-01-26T17:41:12.891Z,11.25
2023-01-26T17:43:40.310Z,11.90
2023-01-26T17:46:09.166Z,13.25
2023-01-26T17:48:37.785Z,14.07
2023-01-26T17:51:08.943Z,13.25
2023-01-26T17:53:40.011Z,16.77
2023-01-26T17:56:08.754Z,14.52
2023-01-26T17:58:36.884Z,14.15
2023-01-26T18:01:05.265Z,12.52
2023-01-26T18:03:32.970Z,11.88
2023-01-26T18:06:00.430Z,12.05
2023-01-26T18:08:28.167Z,13.40
2023-01-26T18:11:02.704Z,12.05
2023-01-26T18:13:30.501Z,12.02
2023-01-26T18:15:57.839Z,11.85
2023-01-26T18:18:26.082Z,11.18
2023-01-26T18:20:53.552Z,10.32
2023-01-26T18:23:21.248Z,10.93
2023-01-26T18:25:48.629Z,10.98
2023-01-26T18:28:16.126Z,11.82
2023-01-26T18:30:43.694Z,11.00
2023-01-26T18:33:11.096Z,12.30
2023-01-26T18:35:38.454Z,9.70
2023-01-26T18:38:05.867Z,9.70
2023-01-26T18:40:33.267Z,10.52
2023-01-26T18:43:00.636Z,10.18
2023-01-26T18:45:37.198Z,9.90
2023-01-26T18:48:06.845Z,13.25
2023-01-26T18:50:34.973Z,12.95
2023-01-26T18:53:04.011Z,13.85
2023-01-26T18:55:34.721Z,20.85
2023-01-26T18:58:02.084Z,13.73
2023-01-26T19:00:29.403Z,12.63
2023-01-26T19:02:56.764Z,11.82
2023-01-26T19:05:24.128Z,13.68
2023-01-26T19:07:51.406Z,14.75
2023-01-26T19:10:18.794Z,11.93
2023-01-26T19:12:46.179Z,11.82
2023-01-26T19:15:13.722Z,11.43
2023-01-26T19:17:44.940Z,11.48
2023-01-26T19:20:13.042Z,10.95
2023-01-26T19:22:40.519Z,10.27
2023-01-26T19:25:08.176Z,9.82
2023-01-26T19:27:35.472Z,10.15
2023-01-26T19:30:02.876Z,10.20
2023-01-26T19:32:30.235Z,9.48
2023-01-26T19:34:57.615Z,8.98
2023-01-26T19:37:24.911Z,12.23
2023-01-26T19:39:52.260Z,10.77
2023-01-26T19:42:19.732Z,9.88
2023-01-26T19:44:47.087Z,10.40
2023-01-26T19:47:14.647Z,10.15
2023-01-26T19:49:42.067Z,10.10
2023-01-26T19:52:12.484Z,9.52
2023-01-26T19:54:45.865Z,9.63
2023-01-26T19:57:13.328Z,9.50
2023-01-26T19:59:40.653Z,9.75
2023-01-26T20:02:10.653Z,9.32
2023-01-26T20:04:41.310Z,10.32
2023-01-26T20:07:09.017Z,10.55
2023-01-26T20:09:36.522Z,9.85
2023-01-26T20:12:06.309Z,10.73
2023-01-26T20:14:34.306Z,10.63
2023-01-26T20:17:02.008Z,10.57
2023-01-26T20:19:29.464Z,9.57
2023-01-26T20:21:57.089Z,10.57
2023-01-26T20:24:32.670Z,10.80
2023-01-26T20:27:00.174Z,10.82
2023-01-26T20:29:27.669Z,11.32
2023-01-26T20:31:55.587Z,11.88
2023-01-26T20:34:23.052Z,10.75
2023-01-26T20:36:50.709Z,11.25
2023-01-26T20:39:25.352Z,12.75
2023-01-26T20:41:53.110Z,14.00
2023-01-26T20:44:20.449Z,14.50
2023-01-26T20:46:48.548Z,14.13
2023-01-26T20:49:19.145Z,13.75
2023-01-26T20:51:47.036Z,13.57
2023-01-26T20:54:16.167Z,12.60
2023-01-26T20:56:45.899Z,12.15
2023-01-26T20:59:13.595Z,13.00
2023-01-26T21:01:41.275Z,12.85
2023-01-26T21:04:08.737Z,14.88
2023-01-26T21:06:36.472Z,12.20
2023-01-26T21:09:05.171Z,11.68
2023-01-26T21:11:32.883Z,13.30
2023-01-26T21:14:02.076Z,10.02
2023-01-26T21:16:38.469Z,10.07
2023-01-26T21:19:05.921Z,9.10
2023-01-26T21:21:33.337Z,10.05
2023-01-26T21:24:00.857Z,11.38
2023-01-26T21:26:28.768Z,12.18
2023-01-26T21:28:57.520Z,12.23
2023-01-26T21:31:25.873Z,12.40
2023-01-26T21:33:53.645Z,13.75
2023-01-26T21:36:22.332Z,13.13
2023-01-26T21:38:51.146Z,13.38
2023-01-26T21:41:41.140Z,13.80
2023-01-26T21:44:09.985Z,12.25
2023-01-26T21:46:51.115Z,14.32
2023-01-26T21:49:18.955Z,13.25
2023-01-26T21:52:05.029Z,14.10
2023-01-26T21:54:40.794Z,15.57
2023-01-26T21:57:28.249Z,11.68
2023-01-26T21:59:55.959Z,11.85
2023-01-26T22:02:23.364Z,11.88
2023-01-26T22:04:53.086Z,12.75
2023-01-26T22:07:20.966Z,11.70
2023-01-26T22:09:48.597Z,11.65
2023-01-26T22:12:16.707Z,12.32
2023-01-26T22:14:44.066Z,13.18
2023-01-26T22:17:11.409Z,12.30
2023-01-26T22:19:38.862Z,13.43
2023-01-26T22:22:06.215Z,12.05
2023-01-26T22:24:33.630Z,16.10
2023-01-26T22:27:01.180Z,12.07
2023-01-26T22:29:28.613Z,11.25
2023-01-26T22:31:56.082Z,12.43
2023-01-26T22:34:23.596Z,12.18
2023-01-26T22:36:50.916Z,10.40
2023-01-26T22:39:18.355Z,10.65
2023-01-26T22:41:45.735Z,10.60
2023-01-26T22:44:13.017Z,10.27
2023-01-26T22:46:40.400Z,9.60
2023-01-26T22:49:07.802Z,9.93
2023-01-26T22:51:37.707Z,11.07
2023-01-26T22:54:05.847Z,13.23
2023-01-26T22:56:33.680Z,11.20
2023-01-26T22:59:04.481Z,11.63
2023-01-26T23:01:33.331Z,10.23
2023-01-26T23:04:01.641Z,11.00
2023-01-26T23:06:29.482Z,14.07
2023-01-26T23:08:58.547Z,11.18
2023-01-26T23:11:27.407Z,11.52
2023-01-26T23:13:55.433Z,10.77
2023-01-26T23:16:23.913Z,10.48
2023-01-26T23:18:51.969Z,11.00
2023-01-26T23:21:19.801Z,10.75
2023-01-26T23:23:47.199Z,11.95
2023-01-26T23:26:14.598Z,9.35
2023-01-26T23:28:43.101Z,10.73
2023-01-26T23:31:11.692Z,10.00
2023-01-26T23:33:39.205Z,11.32
2023-01-26T23:36:07.708Z,11.40
2023-01-26T23:38:35.489Z,12.02
2023-01-26T23:41:05.428Z,12.07
2023-01-26T23:43:32.853Z,11.48
2023-01-26T23:46:00.535Z,11.57
2023-01-26T23:48:27.928Z,10.65
2023-01-26T23:51:03.422Z,11.38
2023-01-26T23:53:31.305Z,11.25
2023-01-26T23:55:59.850Z,12.65
2023-01-26T23:58:27.245Z,12.15
